METAR Reports

Area Airport Weather Conditions

KBDL - Windsor Locks, Connecticut, USA
Distance from station: NE 45mi, 72km
Updated: 2:51PM EDT, July 01, 2022
Mostly cloudy
Mostly cloudy
 Wind from SSW
Wind: SSW 15 mph , 24 km/h, Gust: 21 mph , 33 km/h
Temperature: 93°F , 34°C
Dew Point: 57°F , 14°C
Humidity: 30%
Barometer: 29.94 inHg , 1013.9 hPa
Clouds: Mostly cloudy
Visibility: 10 miles , 16 km
Cloud details: Few Clouds 6500 ft
Partly cloudy 20000 ft
Mostly cloudy 25000 ft
2022/07/01 18:51 KBDL 011851Z 21013G18KT 10SM FEW065 SCT200 BKN250 34/14 A2994 RMK AO2 SLP139 T03390144
KDXR - Danbury, Connecticut, USA
Distance from station: SSW 15mi, 24km
Updated: 2:53PM EDT, July 01, 2022
Few Clouds
Few Clouds
 Wind from WSW
Wind: WSW 12 mph , 19 km/h
Temperature: 91°F , 33°C
Heat Index: 93°F , 34°C
Dew Point: 64°F , 18°C
Humidity: 41%
Barometer: 29.99 inHg , 1015.6 hPa
Clouds: Few Clouds
Visibility: 10 miles , 16 km
Cloud details: Few Clouds 6000 ft
2022/07/01 18:53 KDXR 011853Z 25010KT 10SM FEW060 33/18 A2999 RMK AO2 SLP150 T03280178
 
KOXC - Oxford/Waterbury, Connecticut, USA
Distance from station: ESE 16mi, 26km
Updated: 2:51PM EDT, July 01, 2022
Mostly cloudy
Mostly cloudy
 Wind from SSW
Wind: SSW 13 mph , 20 km/h, Gust: 16 mph , 26 km/h
Temperature: 86°F , 30°C
Heat Index: 92°F , 33°C
Dew Point: 72°F , 22°C
Humidity: 62%
Barometer: 30.01 inHg , 1016.3 hPa
Clouds: Mostly cloudy
Visibility: 9 miles , 14 km
Cloud details: Mostly cloudy 3600 ft
Mostly cloudy 6500 ft
2022/07/01 18:51 KOXC 011851Z 20011G14KT 9SM BKN036 BKN065 30/22 A3001 RMK AO2 SLP166 T03000222
KPOU - Poughkeepsie, New York, USA
Distance from station: W 25mi, 40km
Updated: 2:53PM EDT, July 01, 2022
Few Clouds
Few Clouds
 Wind from WSW
Wind: WSW 10 mph , 17 km/h, Gust: 16 mph , 26 km/h
Temperature: 93°F , 34°C
Dew Point: 57°F , 14°C
Humidity: 30%
Barometer: 29.94 inHg , 1013.9 hPa
Clouds: Few Clouds
Visibility: 10 miles , 16 km
Cloud details: Few Clouds 8500 ft
2022/07/01 18:53 KPOU 011853Z 25009G14KT 10SM FEW085 34/14 A2994 RMK AO2 SLP134 T03390144
 
KMMK - Meriden, Connecticut, USA
Distance from station: E 30mi, 48km
Updated: 2:53PM EDT, July 01, 2022
Clear
Clear
 Wind from S
Wind: S 14 mph , 22 km/h, Gust: 21 mph , 33 km/h
Temperature: 88°F , 31°C
Heat Index: 93°F , 34°C
Dew Point: 70°F , 21°C
Humidity: 55%
Barometer: 29.97 inHg , 1014.9 hPa
Clouds: Clear
Visibility: 10 miles , 16 km
2022/07/01 18:53 KMMK 011853Z AUTO 18012G18KT 10SM CLR 31/21 A2997 RMK AO2 SLP147 T03060206
KBDR - Bridgeport, Connecticut, USA
Distance from station: SSE 32mi, 51km
Updated: 2:52PM EDT, July 01, 2022
Clear
Clear
 Wind from S
Wind: S 15 mph , 24 km/h
Temperature: 84°F , 29°C
Heat Index: 89°F , 32°C
Dew Point: 72°F , 22°C
Humidity: 66%
Barometer: 29.98 inHg , 1015.2 hPa
Clouds: Clear
Visibility: 10 miles , 16 km
2022/07/01 18:52 KBDR 011852Z 19013KT 10SM CLR 29/22 A2998 RMK AO2 SLP151 T02940222
 
KHVN - New Haven/Tweed, Connecticut, USA
Distance from station: SE 35mi, 57km
Updated: 2:53PM EDT, July 01, 2022
Clear
Clear
 Wind from S
Wind: S 10 mph , 17 km/h
Temperature: 88°F , 31°C
Heat Index: 96°F , 36°C
Dew Point: 73°F , 23°C
Humidity: 62%
Barometer: 29.98 inHg , 1015.2 hPa
Clouds: Clear
Visibility: 9 miles , 14 km
2022/07/01 18:53 KHVN 011853Z 19009KT 9SM CLR 31/23 A2998 RMK AO2 SLP153 T03060233
KSWF - Newburgh/Stewart, New York, USA
Distance from station: W 35mi, 57km
Updated: 2:45PM EDT, July 01, 2022
Partly cloudy
Partly cloudy
 Wind from W
Wind: W 14 mph , 22 km/h
Temperature: 91°F , 33°C
Dew Point: 57°F , 14°C
Humidity: 32%
Barometer: 29.97 inHg , 1014.9 hPa
Clouds: Partly cloudy
Visibility: 10 miles , 16 km
Cloud details: Few Clouds 4000 ft
Partly cloudy 12000 ft
2022/07/01 18:45 KSWF 011845Z 26012KT 10SM FEW040 SCT120 33/14 A2997
 
KHPN - White Plains, New York, USA
Distance from station: SSW 38mi, 62km
Updated: 2:56PM EDT, July 01, 2022
Few Clouds
Few Clouds
 Wind from SSE
Wind: SSE 9 mph , 15 km/h, Gust: 18 mph , 30 km/h
Temperature: 88°F , 31°C
Heat Index: 95°F , 35°C
Dew Point: 72°F , 22°C
Humidity: 59%
Barometer: 29.98 inHg , 1015.2 hPa
Clouds: Few Clouds
Visibility: 10 miles , 16 km
Cloud details: Few Clouds 6500 ft
2022/07/01 18:56 KHPN 011856Z 16008G16KT 10SM FEW065 31/22 A2998 RMK SLP146
KHFD - Hartford/Brainar, Connecticut, USA
Distance from station: ENE 41mi, 65km
Updated: 2:53PM EDT, July 01, 2022
Partly cloudy
Partly cloudy
 Wind from SSW
Wind: SSW 9 mph , 15 km/h, Gust: 18 mph , 30 km/h
Temperature: 90°F , 32°C
Heat Index: 96°F , 36°C
Dew Point: 70°F , 21°C
Humidity: 52%
Barometer: 29.95 inHg , 1014.2 hPa
Clouds: Partly cloudy
Visibility: 10 miles , 16 km
Cloud details: Few Clouds 4600 ft
Few Clouds 5500 ft
Partly cloudy 7000 ft
2022/07/01 18:53 KHFD 011853Z AUTO 21008G16KT 10SM FEW046 FEW055 SCT070 32/21 A2995 RMK AO2 SLP141 T03220211